Portada
METAR-TAF:

METAR-TAF

Aeropuertos :

Sylacauga, Alabama, Estados Unidos

latitud: 33-10-19N, longitud: 086-18-20W, altitud: 173 m

Observación

El informe se hizo hace 13 minutos, a las 05:35 UTC
Viento calma
Temperatura 23°C
Humedad 100%
Presión 1015 hPa
Visibilidad: 16.1 km
Nubes dispersas a una altura de 8000 ft
Nubes dispersas a una altura de 10000 ft
Cielo nuboso a una altura de 12000 ft

METAR: KSCD 080535Z AUTO 00000KT 10SM SCT080 SCT100 BKN120 23/23 A2998 RMK AO2 T02330226

Hora: 00:48 (05:48 UTC)


TAF: falta

Observaciones y pronósticos meteorológicos de más de 4000 aeropuertos (mensajes METAR y TAF).

Los puntos amarillos y rojos representan las estaciones disponibles.

Ponga el ratón en el punto deseado para ver el nombre de la estación.

Haga clic para ver las observaciones y los pronósticos meteorológicos.

Para cambiar el mapa : haga clic en los botones verdes con una cruz de color negro para hacer un zoom, en el botón verde con un guión para alejar o en las flechas verdes para mapas adyacentes.


METAR-TAF: